sensor_id;sensor_type;location;lat;lon;timestamp;pressure;altitude;pressure_sealevel;temperature;humidity
46408;BME280;32110;45.724;21.276;2023-04-29T00:02:17;100536.88;;;8.24;nan
46408;BME280;32110;45.724;21.276;2023-04-29T00:04:42;100526.41;;;8.17;nan
46408;BME280;32110;45.724;21.276;2023-04-29T00:07:08;100516.72;;;8.11;nan
46408;BME280;32110;45.724;21.276;2023-04-29T00:09:33;100535.25;;;8.23;nan
46408;BME280;32110;45.724;21.276;2023-04-29T00:11:59;100525.00;;;8.15;nan
46408;BME280;32110;45.724;21.276;2023-04-29T00:14:24;100540.50;;;8.23;nan
46408;BME280;32110;45.724;21.276;2023-04-29T00:16:50;100532.06;;;8.14;nan
46408;BME280;32110;45.724;21.276;2023-04-29T00:19:15;100538.69;;;8.23;nan
46408;BME280;32110;45.724;21.276;2023-04-29T00:21:42;100518.97;;;8.07;nan
46408;BME280;32110;45.724;21.276;2023-04-29T00:24:08;100522.56;;;8.13;nan
46408;BME280;32110;45.724;21.276;2023-04-29T00:26:33;100526.81;;;8.14;nan
46408;BME280;32110;45.724;21.276;2023-04-29T00:28:59;100519.94;;;8.13;nan
46408;BME280;32110;45.724;21.276;2023-04-29T00:31:25;100521.16;;;8.17;nan
46408;BME280;32110;45.724;21.276;2023-04-29T00:33:50;100516.09;;;8.16;nan
46408;BME280;32110;45.724;21.276;2023-04-29T00:36:16;100519.53;;;8.16;nan
46408;BME280;32110;45.724;21.276;2023-04-29T00:38:41;100508.25;;;8.09;nan
46408;BME280;32110;45.724;21.276;2023-04-29T00:41:07;100505.84;;;8.07;nan
46408;BME280;32110;45.724;21.276;2023-04-29T00:43:33;100512.91;;;8.07;nan
46408;BME280;32110;45.724;21.276;2023-04-29T00:45:58;100520.78;;;8.07;nan
46408;BME280;32110;45.724;21.276;2023-04-29T00:48:24;100520.78;;;8.07;nan
46408;BME280;32110;45.724;21.276;2023-04-29T00:50:49;100512.69;;;8.02;nan
46408;BME280;32110;45.724;21.276;2023-04-29T00:53:15;100519.16;;;8.06;nan
46408;BME280;32110;45.724;21.276;2023-04-29T00:55:43;100517.38;;;8.00;nan
46408;BME280;32110;45.724;21.276;2023-04-29T00:58:08;100512.94;;;7.94;nan
46408;BME280;32110;45.724;21.276;2023-04-29T01:00:35;100523.22;;;7.95;nan
46408;BME280;32110;45.724;21.276;2023-04-29T01:03:01;100502.66;;;7.85;nan
46408;BME280;32110;45.724;21.276;2023-04-29T01:05:26;100514.34;;;7.89;nan
46408;BME280;32110;45.724;21.276;2023-04-29T01:10:28;100514.75;;;7.86;nan
46408;BME280;32110;45.724;21.276;2023-04-29T01:13:05;100519.59;;;7.89;nan
46408;BME280;32110;45.724;21.276;2023-04-29T01:15:48;100533.50;;;7.90;nan
46408;BME280;32110;45.724;21.276;2023-04-29T01:18:25;100523.41;;;7.80;nan
46408;BME280;32110;45.724;21.276;2023-04-29T01:20:52;100529.06;;;7.84;nan
46408;BME280;32110;45.724;21.276;2023-04-29T01:23:17;100525.06;;;7.81;nan
46408;BME280;32110;45.724;21.276;2023-04-29T01:25:43;100507.50;;;7.75;nan
46408;BME280;32110;45.724;21.276;2023-04-29T01:31:06;100509.75;;;7.78;nan
46408;BME280;32110;45.724;21.276;2023-04-29T01:41:42;100517.00;;;7.76;nan
46408;BME280;32110;45.724;21.276;2023-04-29T01:44:17;100517.19;;;7.75;nan
46408;BME280;32110;45.724;21.276;2023-04-29T01:46:50;100451.69;;;7.35;nan
46408;BME280;32110;45.724;21.276;2023-04-29T01:49:20;100488.38;;;7.61;nan
46408;BME280;32110;45.724;21.276;2023-04-29T01:51:46;100507.53;;;7.69;nan
46408;BME280;32110;45.724;21.276;2023-04-29T01:54:11;100493.00;;;7.59;nan
46408;BME280;32110;45.724;21.276;2023-04-29T01:56:37;100498.66;;;7.63;nan
46408;BME280;32110;45.724;21.276;2023-04-29T01:59:02;100492.19;;;7.59;nan
46408;BME280;32110;45.724;21.276;2023-04-29T02:01:27;100482.72;;;7.51;nan
46408;BME280;32110;45.724;21.276;2023-04-29T02:03:53;100479.13;;;7.52;nan
46408;BME280;32110;45.724;21.276;2023-04-29T02:06:18;100474.88;;;7.51;nan
46408;BME280;32110;45.724;21.276;2023-04-29T02:08:44;100491.19;;;7.53;nan
46408;BME280;32110;45.724;21.276;2023-04-29T02:11:09;100488.56;;;7.53;nan
46408;BME280;32110;45.724;21.276;2023-04-29T02:13:35;100483.31;;;7.46;nan
46408;BME280;32110;45.724;21.276;2023-04-29T02:16:07;100503.09;;;7.56;nan
46408;BME280;32110;45.724;21.276;2023-04-29T02:18:33;100500.06;;;7.52;nan
46408;BME280;32110;45.724;21.276;2023-04-29T02:20:59;100501.06;;;7.51;nan
46408;BME280;32110;45.724;21.276;2023-04-29T02:23:25;100491.59;;;7.50;nan
46408;BME280;32110;45.724;21.276;2023-04-29T02:25:51;100489.78;;;7.51;nan
46408;BME280;32110;45.724;21.276;2023-04-29T02:28:16;100488.78;;;7.45;nan
46408;BME280;32110;45.724;21.276;2023-04-29T02:30:42;100500.47;;;7.49;nan
46408;BME280;32110;45.724;21.276;2023-04-29T02:33:07;100495.03;;;7.44;nan
46408;BME280;32110;45.724;21.276;2023-04-29T02:35:33;100504.28;;;7.46;nan
46408;BME280;32110;45.724;21.276;2023-04-29T02:37:58;100493.41;;;7.36;nan
46408;BME280;32110;45.724;21.276;2023-04-29T02:40:23;100502.69;;;7.39;nan
46408;BME280;32110;45.724;21.276;2023-04-29T02:42:50;100502.06;;;7.37;nan
46408;BME280;32110;45.724;21.276;2023-04-29T02:45:15;100502.06;;;7.37;nan
46408;BME280;32110;45.724;21.276;2023-04-29T02:47:41;100494.63;;;7.34;nan
46408;BME280;32110;45.724;21.276;2023-04-29T02:50:07;100503.28;;;7.41;nan
46408;BME280;32110;45.724;21.276;2023-04-29T02:52:32;100509.75;;;7.38;nan
46408;BME280;32110;45.724;21.276;2023-04-29T02:54:58;100495.41;;;7.34;nan
46408;BME280;32110;45.724;21.276;2023-04-29T02:57:23;100509.56;;;7.40;nan
46408;BME280;32110;45.724;21.276;2023-04-29T02:59:48;100506.31;;;7.38;nan
46408;BME280;32110;45.724;21.276;2023-04-29T03:02:14;100493.63;;;7.28;nan
46408;BME280;32110;45.724;21.276;2023-04-29T03:04:39;100497.84;;;7.36;nan
46408;BME280;32110;45.724;21.276;2023-04-29T03:07:04;100499.06;;;7.33;nan
46408;BME280;32110;45.724;21.276;2023-04-29T03:09:32;100497.44;;;7.32;nan
46408;BME280;32110;45.724;21.276;2023-04-29T03:11:57;100492.00;;;7.27;nan
46408;BME280;32110;45.724;21.276;2023-04-29T03:14:23;100499.44;;;7.30;nan
46408;BME280;32110;45.724;21.276;2023-04-29T03:16:48;100492.22;;;7.26;nan
46408;BME280;32110;45.724;21.276;2023-04-29T03:19:13;100489.38;;;7.27;nan
46408;BME280;32110;45.724;21.276;2023-04-29T03:21:39;100485.53;;;7.23;nan
46408;BME280;32110;45.724;21.276;2023-04-29T03:24:05;100485.75;;;7.15;nan
46408;BME280;32110;45.724;21.276;2023-04-29T03:26:30;100486.16;;;7.12;nan
46408;BME280;32110;45.724;21.276;2023-04-29T03:28:56;100485.13;;;7.06;nan
46408;BME280;32110;45.724;21.276;2023-04-29T03:31:23;100449.03;;;6.81;nan
46408;BME280;32110;45.724;21.276;2023-04-29T03:33:49;100481.09;;;7.03;nan
46408;BME280;32110;45.724;21.276;2023-04-29T03:36:15;100484.31;;;7.06;nan
46408;BME280;32110;45.724;21.276;2023-04-29T03:38:40;100473.81;;;6.99;nan
46408;BME280;32110;45.724;21.276;2023-04-29T03:41:07;100480.72;;;7.07;nan
46408;BME280;32110;45.724;21.276;2023-04-29T03:43:33;100476.88;;;7.09;nan
46408;BME280;32110;45.724;21.276;2023-04-29T03:45:58;100485.34;;;7.11;nan
46408;BME280;32110;45.724;21.276;2023-04-29T03:48:24;100483.72;;;7.10;nan
46408;BME280;32110;45.724;21.276;2023-04-29T03:50:49;100484.31;;;7.12;nan
46408;BME280;32110;45.724;21.276;2023-04-29T03:53:15;100486.53;;;7.09;nan
46408;BME280;32110;45.724;21.276;2023-04-29T03:55:41;100484.94;;;7.08;nan
46408;BME280;32110;45.724;21.276;2023-04-29T03:58:07;100478.88;;;7.00;nan
46408;BME280;32110;45.724;21.276;2023-04-29T04:00:32;100495.81;;;7.11;nan
46408;BME280;32110;45.724;21.276;2023-04-29T04:02:58;100489.97;;;7.16;nan
46408;BME280;32110;45.724;21.276;2023-04-29T04:05:24;100464.38;;;6.98;nan
46408;BME280;32110;45.724;21.276;2023-04-29T04:07:53;100505.09;;;7.27;nan
46408;BME280;32110;45.724;21.276;2023-04-29T04:10:19;100498.63;;;7.30;nan
46408;BME280;32110;45.724;21.276;2023-04-29T04:12:44;100498.25;;;7.33;nan
46408;BME280;32110;45.724;21.276;2023-04-29T04:15:11;100497.63;;;7.37;nan
46408;BME280;32110;45.724;21.276;2023-04-29T04:17:36;100493.41;;;7.36;nan
46408;BME280;32110;45.724;21.276;2023-04-29T04:20:02;100488.16;;;7.30;nan
46408;BME280;32110;45.724;21.276;2023-04-29T04:22:28;100504.88;;;7.42;nan
46408;BME280;32110;45.724;21.276;2023-04-29T04:24:54;100490.19;;;7.34;nan
46408;BME280;32110;45.724;21.276;2023-04-29T05:01:16;100502.88;;;7.71;nan
46408;BME280;32110;45.724;21.276;2023-04-29T06:55:18;100498.50;;;9.88;nan
46408;BME280;32110;45.724;21.276;2023-04-29T12:02:32;100395.91;;;17.67;nan
46408;BME280;32110;45.724;21.276;2023-04-29T12:09:50;100392.06;;;17.99;nan
46408;BME280;32110;45.724;21.276;2023-04-29T12:19:33;100384.66;;;18.35;nan
46408;BME280;32110;45.724;21.276;2023-04-29T12:21:59;100349.91;;;18.45;nan
46408;BME280;32110;45.724;21.276;2023-04-29T12:24:25;100353.06;;;18.53;nan
46408;BME280;32110;45.724;21.276;2023-04-29T12:34:11;100390.56;;;18.66;nan
46408;BME280;32110;45.724;21.276;2023-04-29T12:44:03;100340.50;;;18.92;nan
46408;BME280;32110;45.724;21.276;2023-04-29T12:46:33;100342.84;;;18.99;nan
46408;BME280;32110;45.724;21.276;2023-04-29T12:51:26;100355.28;;;19.09;nan
46408;BME280;32110;45.724;21.276;2023-04-29T12:56:17;100359.66;;;19.24;nan
46408;BME280;32110;45.724;21.276;2023-04-29T12:58:42;100367.31;;;19.30;nan
46408;BME280;32110;45.724;21.276;2023-04-29T13:01:07;100367.78;;;19.38;nan
46408;BME280;32110;45.724;21.276;2023-04-29T13:03:34;100353.34;;;19.39;nan
46408;BME280;32110;45.724;21.276;2023-04-29T13:06:00;100361.28;;;19.44;nan
46408;BME280;32110;45.724;21.276;2023-04-29T13:08:26;100347.09;;;19.48;nan
46408;BME280;32110;45.724;21.276;2023-04-29T13:10:52;100336.63;;;19.52;nan
46408;BME280;32110;45.724;21.276;2023-04-29T13:13:18;100335.72;;;19.62;nan
46408;BME280;32110;45.724;21.276;2023-04-29T13:15:43;100338.06;;;19.68;nan
46408;BME280;32110;45.724;21.276;2023-04-29T13:18:09;100335.66;;;19.67;nan
46408;BME280;32110;45.724;21.276;2023-04-29T13:20:34;100339.94;;;19.68;nan
46408;BME280;32110;45.724;21.276;2023-04-29T13:23:00;100330.88;;;19.64;nan
46408;BME280;32110;45.724;21.276;2023-04-29T13:25:25;100325.31;;;19.60;nan
46408;BME280;32110;45.724;21.276;2023-04-29T13:27:51;100309.31;;;19.36;nan
46408;BME280;32110;45.724;21.276;2023-04-29T13:30:16;100333.13;;;19.57;nan
46408;BME280;32110;45.724;21.276;2023-04-29T13:32:42;100313.75;;;19.65;nan
46408;BME280;32110;45.724;21.276;2023-04-29T13:35:08;100316.94;;;19.67;nan
46408;BME280;32110;45.724;21.276;2023-04-29T13:37:34;100318.03;;;19.66;nan
46408;BME280;32110;45.724;21.276;2023-04-29T13:39:59;100317.19;;;19.70;nan
46408;BME280;32110;45.724;21.276;2023-04-29T13:42:25;100319.31;;;19.73;nan
46408;BME280;32110;45.724;21.276;2023-04-29T13:44:50;100315.47;;;19.80;nan
46408;BME280;32110;45.724;21.276;2023-04-29T13:47:17;100320.44;;;19.86;nan
46408;BME280;32110;45.724;21.276;2023-04-29T13:49:43;100318.88;;;19.85;nan
46408;BME280;32110;45.724;21.276;2023-04-29T13:52:09;100302.97;;;19.75;nan
46408;BME280;32110;45.724;21.276;2023-04-29T13:54:35;100309.84;;;19.81;nan
46408;BME280;32110;45.724;21.276;2023-04-29T13:57:01;100310.13;;;19.80;nan
46408;BME280;32110;45.724;21.276;2023-04-29T13:59:33;100308.03;;;19.76;nan
46408;BME280;32110;45.724;21.276;2023-04-29T14:02:00;100310.13;;;19.80;nan
46408;BME280;32110;45.724;21.276;2023-04-29T14:04:26;100298.06;;;19.82;nan
46408;BME280;32110;45.724;21.276;2023-04-29T14:06:52;100296.25;;;19.77;nan
46408;BME280;32110;45.724;21.276;2023-04-29T14:09:17;100298.44;;;19.75;nan
46408;BME280;32110;45.724;21.276;2023-04-29T14:11:44;100302.81;;;19.66;nan
46408;BME280;32110;45.724;21.276;2023-04-29T14:14:10;100295.41;;;19.58;nan
46408;BME280;32110;45.724;21.276;2023-04-29T14:16:35;100305.88;;;19.54;nan
46408;BME280;32110;45.724;21.276;2023-04-29T14:19:01;100306.22;;;19.48;nan
46408;BME280;32110;45.724;21.276;2023-04-29T14:21:26;100294.31;;;19.40;nan
46408;BME280;32110;45.724;21.276;2023-04-29T14:23:52;100306.31;;;19.43;nan
46408;BME280;32110;45.724;21.276;2023-04-29T14:26:17;100272.13;;;19.21;nan
46408;BME280;32110;45.724;21.276;2023-04-29T14:28:43;100299.16;;;19.38;nan
46408;BME280;32110;45.724;21.276;2023-04-29T14:31:08;100264.91;;;19.21;nan
46408;BME280;32110;45.724;21.276;2023-04-29T14:33:35;100283.13;;;19.38;nan
46408;BME280;32110;45.724;21.276;2023-04-29T14:36:00;100288.91;;;19.45;nan
46408;BME280;32110;45.724;21.276;2023-04-29T14:38:26;100291.78;;;19.49;nan
46408;BME280;32110;45.724;21.276;2023-04-29T14:40:51;100283.28;;;19.47;nan
46408;BME280;32110;45.724;21.276;2023-04-29T14:43:17;100293.13;;;19.51;nan
46408;BME280;32110;45.724;21.276;2023-04-29T14:45:42;100277.44;;;19.45;nan
46408;BME280;32110;45.724;21.276;2023-04-29T14:48:09;100278.50;;;19.44;nan
46408;BME280;32110;45.724;21.276;2023-04-29T14:50:35;100288.69;;;19.42;nan
46408;BME280;32110;45.724;21.276;2023-04-29T14:53:00;100292.50;;;19.36;nan
46408;BME280;32110;45.724;21.276;2023-04-29T14:55:26;100285.63;;;19.29;nan
46408;BME280;32110;45.724;21.276;2023-04-29T14:57:51;100281.44;;;19.23;nan
46408;BME280;32110;45.724;21.276;2023-04-29T15:00:17;100288.66;;;19.23;nan
46408;BME280;32110;45.724;21.276;2023-04-29T15:02:42;100282.69;;;19.07;nan
46408;BME280;32110;45.724;21.276;2023-04-29T15:05:08;100279.63;;;18.95;nan
46408;BME280;32110;45.724;21.276;2023-04-29T15:07:34;100284.00;;;18.85;nan
46408;BME280;32110;45.724;21.276;2023-04-29T15:10:00;100287.75;;;18.84;nan
46408;BME280;32110;45.724;21.276;2023-04-29T15:12:26;100289.84;;;18.87;nan
46408;BME280;32110;45.724;21.276;2023-04-29T15:14:51;100293.63;;;18.81;nan
46408;BME280;32110;45.724;21.276;2023-04-29T15:17:17;100288.13;;;18.67;nan
46408;BME280;32110;45.724;21.276;2023-04-29T15:19:43;100285.72;;;18.71;nan
46408;BME280;32110;45.724;21.276;2023-04-29T15:22:08;100287.06;;;18.68;nan
46408;BME280;32110;45.724;21.276;2023-04-29T15:24:34;100289.16;;;18.71;nan
46408;BME280;32110;45.724;21.276;2023-04-29T15:27:00;100277.25;;;18.64;nan
46408;BME280;32110;45.724;21.276;2023-04-29T15:29:26;100287.63;;;18.65;nan
46408;BME280;32110;45.724;21.276;2023-04-29T15:31:52;100288.94;;;18.68;nan
46408;BME280;32110;45.724;21.276;2023-04-29T15:34:17;100280.47;;;18.61;nan
46408;BME280;32110;45.724;21.276;2023-04-29T15:36:42;100285.81;;;18.61;nan
46408;BME280;32110;45.724;21.276;2023-04-29T15:39:08;100293.81;;;18.61;nan
46408;BME280;32110;45.724;21.276;2023-04-29T15:41:35;100283.19;;;18.56;nan
46408;BME280;32110;45.724;21.276;2023-04-29T15:44:01;100288.00;;;18.54;nan
46408;BME280;32110;45.724;21.276;2023-04-29T15:46:29;100283.25;;;18.45;nan
46408;BME280;32110;45.724;21.276;2023-04-29T15:48:54;100292.56;;;18.48;nan
46408;BME280;32110;45.724;21.276;2023-04-29T15:51:19;100283.09;;;18.37;nan
46408;BME280;32110;45.724;21.276;2023-04-29T15:53:45;100298.00;;;18.38;nan
46408;BME280;32110;45.724;21.276;2023-04-29T15:56:12;100292.44;;;18.34;nan
46408;BME280;32110;45.724;21.276;2023-04-29T15:58:37;100293.53;;;18.28;nan
46408;BME280;32110;45.724;21.276;2023-04-29T16:01:02;100285.34;;;18.19;nan
46408;BME280;32110;45.724;21.276;2023-04-29T16:03:29;100292.06;;;18.12;nan
46408;BME280;32110;45.724;21.276;2023-04-29T16:05:54;100293.41;;;18.09;nan
46408;BME280;32110;45.724;21.276;2023-04-29T16:08:20;100281.53;;;17.96;nan
46408;BME280;32110;45.724;21.276;2023-04-29T16:10:45;100287.91;;;17.95;nan
46408;BME280;32110;45.724;21.276;2023-04-29T16:13:11;100290.09;;;17.88;nan
46408;BME280;32110;45.724;21.276;2023-04-29T16:15:36;100290.38;;;17.87;nan
46408;BME280;32110;45.724;21.276;2023-04-29T16:18:02;100302.34;;;17.79;nan
46408;BME280;32110;45.724;21.276;2023-04-29T16:20:27;100303.22;;;17.74;nan
46408;BME280;32110;45.724;21.276;2023-04-29T16:22:52;100283.25;;;17.67;nan
46408;BME280;32110;45.724;21.276;2023-04-29T16:25:18;100293.38;;;17.64;nan
46408;BME280;32110;45.724;21.276;2023-04-29T16:27:43;100301.91;;;17.61;nan
46408;BME280;32110;45.724;21.276;2023-04-29T16:30:09;100296.09;;;17.54;nan
46408;BME280;32110;45.724;21.276;2023-04-29T16:32:35;100296.66;;;17.51;nan
46408;BME280;32110;45.724;21.276;2023-04-29T16:35:00;100292.41;;;17.45;nan
46408;BME280;32110;45.724;21.276;2023-04-29T16:37:26;100300.41;;;17.45;nan
46408;BME280;32110;45.724;21.276;2023-04-29T16:39:51;100296.72;;;17.41;nan
46408;BME280;32110;45.724;21.276;2023-04-29T16:42:16;100283.16;;;17.32;nan
46408;BME280;32110;45.724;21.276;2023-04-29T16:44:43;100294.88;;;17.26;nan
46408;BME280;32110;45.724;21.276;2023-04-29T16:47:09;100284.81;;;17.18;nan
46408;BME280;32110;45.724;21.276;2023-04-29T16:49:34;100299.69;;;17.19;nan
46408;BME280;32110;45.724;21.276;2023-04-29T16:52:00;100296.25;;;17.13;nan
46408;BME280;32110;45.724;21.276;2023-04-29T16:54:25;100301.06;;;17.11;nan
46408;BME280;32110;45.724;21.276;2023-04-29T16:56:52;100302.69;;;17.07;nan
46408;BME280;32110;45.724;21.276;2023-04-29T16:59:17;100288.34;;;16.98;nan
46408;BME280;32110;45.724;21.276;2023-04-29T17:01:42;100289.66;;;16.90;nan
46408;BME280;32110;45.724;21.276;2023-04-29T17:04:08;100287.81;;;16.91;nan
46408;BME280;32110;45.724;21.276;2023-04-29T17:06:34;100296.59;;;16.91;nan
46408;BME280;32110;45.724;21.276;2023-04-29T17:09:01;100302.69;;;16.92;nan
46408;BME280;32110;45.724;21.276;2023-04-29T17:11:27;100301.13;;;16.91;nan
46408;BME280;32110;45.724;21.276;2023-04-29T17:13:52;100300.84;;;16.87;nan
46408;BME280;32110;45.724;21.276;2023-04-29T17:16:18;100297.66;;;16.75;nan
46408;BME280;32110;45.724;21.276;2023-04-29T17:18:43;100291.25;;;16.71;nan
46408;BME280;32110;45.724;21.276;2023-04-29T17:21:08;100304.28;;;16.72;nan
46408;BME280;32110;45.724;21.276;2023-04-29T17:23:34;100300.56;;;16.68;nan
46408;BME280;32110;45.724;21.276;2023-04-29T17:26:00;100301.66;;;16.62;nan
46408;BME280;32110;45.724;21.276;2023-04-29T17:28:26;100305.66;;;16.59;nan
46408;BME280;32110;45.724;21.276;2023-04-29T17:30:52;100308.03;;;16.56;nan
46408;BME280;32110;45.724;21.276;2023-04-29T17:33:20;100301.41;;;16.48;nan
46408;BME280;32110;45.724;21.276;2023-04-29T17:35:46;100294.75;;;16.46;nan
46408;BME280;32110;45.724;21.276;2023-04-29T17:38:12;100300.06;;;16.51;nan
46408;BME280;32110;45.724;21.276;2023-04-29T17:40:37;100295.28;;;16.48;nan
46408;BME280;32110;45.724;21.276;2023-04-29T17:43:03;100291.31;;;16.45;nan
46408;BME280;32110;45.724;21.276;2023-04-29T17:45:28;100300.06;;;16.41;nan
46408;BME280;32110;45.724;21.276;2023-04-29T17:47:53;100294.75;;;16.35;nan
46408;BME280;32110;45.724;21.276;2023-04-29T17:50:19;100294.75;;;16.35;nan
46408;BME280;32110;45.724;21.276;2023-04-29T17:52:44;100295.25;;;16.32;nan
46408;BME280;32110;45.724;21.276;2023-04-29T17:55:10;100289.97;;;16.27;nan
46408;BME280;32110;45.724;21.276;2023-04-29T17:57:36;100306.19;;;16.31;nan
46408;BME280;32110;45.724;21.276;2023-04-29T18:00:04;100301.66;;;16.26;nan
46408;BME280;32110;45.724;21.276;2023-04-29T18:02:29;100296.34;;;16.26;nan
46408;BME280;32110;45.724;21.276;2023-04-29T18:04:54;100296.06;;;16.23;nan
46408;BME280;32110;45.724;21.276;2023-04-29T18:07:20;100291.81;;;16.11;nan
46408;BME280;32110;45.724;21.276;2023-04-29T18:09:45;100297.63;;;16.08;nan
46408;BME280;32110;45.724;21.276;2023-04-29T18:12:11;100311.75;;;16.14;nan
46408;BME280;32110;45.724;21.276;2023-04-29T18:14:36;100306.69;;;16.12;nan
46408;BME280;32110;45.724;21.276;2023-04-29T18:17:03;100297.91;;;16.07;nan
46408;BME280;32110;45.724;21.276;2023-04-29T18:19:28;100305.09;;;16.11;nan
46408;BME280;32110;45.724;21.276;2023-04-29T18:21:54;100298.97;;;16.01;nan
46408;BME280;32110;45.724;21.276;2023-04-29T18:24:26;100301.38;;;16.02;nan
46408;BME280;32110;45.724;21.276;2023-04-29T18:26:55;100304.56;;;16.04;nan
46408;BME280;32110;45.724;21.276;2023-04-29T18:29:21;100288.34;;;16.06;nan
46408;BME280;32110;45.724;21.276;2023-04-29T18:31:46;100306.97;;;16.21;nan
46408;BME280;32110;45.724;21.276;2023-04-29T18:34:11;100301.38;;;16.07;nan
46408;BME280;32110;45.724;21.276;2023-04-29T18:36:37;100294.19;;;15.98;nan
46408;BME280;32110;45.724;21.276;2023-04-29T18:39:02;100303.72;;;15.93;nan
46408;BME280;32110;45.724;21.276;2023-04-29T18:41:28;100305.84;;;15.91;nan
46408;BME280;32110;45.724;21.276;2023-04-29T18:43:53;100312.78;;;15.92;nan
46408;BME280;32110;45.724;21.276;2023-04-29T18:46:18;100304.50;;;15.84;nan
46408;BME280;32110;45.724;21.276;2023-04-29T18:48:44;100304.75;;;15.77;nan
46408;BME280;32110;45.724;21.276;2023-04-29T18:51:09;100300.72;;;15.69;nan
46408;BME280;32110;45.724;21.276;2023-04-29T18:53:35;100316.16;;;15.72;nan
46408;BME280;32110;45.724;21.276;2023-04-29T18:56:01;100301.25;;;15.61;nan
46408;BME280;32110;45.724;21.276;2023-04-29T18:58:26;100322.75;;;15.65;nan
46408;BME280;32110;45.724;21.276;2023-04-29T19:00:52;100317.97;;;15.62;nan
46408;BME280;32110;45.724;21.276;2023-04-29T19:03:17;100320.84;;;15.55;nan
46408;BME280;32110;45.724;21.276;2023-04-29T19:05:43;100301.69;;;15.43;nan
46408;BME280;32110;45.724;21.276;2023-04-29T19:08:08;100312.06;;;15.44;nan
46408;BME280;32110;45.724;21.276;2023-04-29T19:10:33;100317.88;;;15.41;nan
46408;BME280;32110;45.724;21.276;2023-04-29T19:12:59;100310.69;;;15.37;nan
46408;BME280;32110;45.724;21.276;2023-04-29T19:15:24;100308.28;;;15.30;nan
46408;BME280;32110;45.724;21.276;2023-04-29T19:17:52;100317.03;;;15.30;nan
46408;BME280;32110;45.724;21.276;2023-04-29T19:20:18;100306.34;;;15.20;nan
46408;BME280;32110;45.724;21.276;2023-04-29T19:22:43;100324.66;;;15.22;nan
46408;BME280;32110;45.724;21.276;2023-04-29T19:25:09;100318.25;;;15.13;nan
46408;BME280;32110;45.724;21.276;2023-04-29T19:27:34;100320.06;;;15.02;nan
46408;BME280;32110;45.724;21.276;2023-04-29T19:30:00;100320.81;;;14.97;nan
46408;BME280;32110;45.724;21.276;2023-04-29T19:32:26;100329.53;;;14.93;nan
46408;BME280;32110;45.724;21.276;2023-04-29T19:34:52;100305.88;;;14.81;nan
46408;BME280;32110;45.724;21.276;2023-04-29T19:37:17;100317.03;;;14.88;nan
46408;BME280;32110;45.724;21.276;2023-04-29T19:39:43;100318.59;;;14.84;nan
46408;BME280;32110;45.724;21.276;2023-04-29T19:42:08;100309.19;;;14.61;nan
46408;BME280;32110;45.724;21.276;2023-04-29T19:44:33;100310.72;;;14.57;nan
46408;BME280;32110;45.724;21.276;2023-04-29T19:46:59;100312.44;;;14.46;nan
46408;BME280;32110;45.724;21.276;2023-04-29T19:49:24;100324.69;;;14.52;nan
46408;BME280;32110;45.724;21.276;2023-04-29T19:51:50;100306.09;;;14.42;nan
46408;BME280;32110;45.724;21.276;2023-04-29T19:54:16;100311.94;;;14.44;nan
46408;BME280;32110;45.724;21.276;2023-04-29T19:56:42;100311.09;;;14.43;nan
46408;BME280;32110;45.724;21.276;2023-04-29T19:59:07;100282.31;;;14.20;nan
46408;BME280;32110;45.724;21.276;2023-04-29T20:01:32;100318.47;;;14.36;nan
46408;BME280;32110;45.724;21.276;2023-04-29T20:03:58;100309.69;;;14.31;nan
46408;BME280;32110;45.724;21.276;2023-04-29T20:06:23;100321.94;;;14.37;nan
46408;BME280;32110;45.724;21.276;2023-04-29T20:08:49;100321.63;;;14.33;nan
46408;BME280;32110;45.724;21.276;2023-04-29T20:11:15;100317.63;;;14.31;nan
46408;BME280;32110;45.724;21.276;2023-04-29T20:13:40;100306.94;;;14.20;nan
46408;BME280;32110;45.724;21.276;2023-04-29T20:16:06;100310.38;;;14.21;nan
46408;BME280;32110;45.724;21.276;2023-04-29T20:18:32;100309.06;;;14.18;nan
46408;BME280;32110;45.724;21.276;2023-04-29T20:21:01;100316.75;;;14.20;nan
46408;BME280;32110;45.724;21.276;2023-04-29T20:23:27;100307.38;;;14.12;nan
46408;BME280;32110;45.724;21.276;2023-04-29T20:25:52;100314.34;;;14.18;nan
46408;BME280;32110;45.724;21.276;2023-04-29T20:28:18;100326.53;;;14.19;nan
46408;BME280;32110;45.724;21.276;2023-04-29T20:30:43;100311.06;;;14.06;nan
46408;BME280;32110;45.724;21.276;2023-04-29T20:33:09;100320.34;;;14.09;nan
46408;BME280;32110;45.724;21.276;2023-04-29T20:35:34;100318.13;;;14.00;nan
46408;BME280;32110;45.724;21.276;2023-04-29T20:37:59;100280.22;;;13.68;nan
46408;BME280;32110;45.724;21.276;2023-04-29T20:40:25;100309.75;;;13.81;nan
46408;BME280;32110;45.724;21.276;2023-04-29T20:42:50;100317.13;;;13.79;nan
46408;BME280;32110;45.724;21.276;2023-04-29T20:45:16;100316.88;;;13.59;nan
46408;BME280;32110;45.724;21.276;2023-04-29T20:47:42;100322.13;;;13.54;nan
46408;BME280;32110;45.724;21.276;2023-04-29T20:50:08;100326.34;;;13.55;nan
46408;BME280;32110;45.724;21.276;2023-04-29T20:52:34;100326.63;;;13.53;nan
46408;BME280;32110;45.724;21.276;2023-04-29T20:55:01;100334.78;;;13.52;nan
46408;BME280;32110;45.724;21.276;2023-04-29T20:57:26;100327.34;;;13.49;nan
46408;BME280;32110;45.724;21.276;2023-04-29T20:59:52;100329.38;;;13.42;nan
46408;BME280;32110;45.724;21.276;2023-04-29T21:02:18;100334.91;;;13.40;nan
46408;BME280;32110;45.724;21.276;2023-04-29T21:04:43;100328.75;;;13.34;nan
46408;BME280;32110;45.724;21.276;2023-04-29T21:07:08;100321.56;;;13.30;nan
46408;BME280;32110;45.724;21.276;2023-04-29T21:09:34;100333.16;;;13.29;nan
46408;BME280;32110;45.724;21.276;2023-04-29T21:12:00;100321.63;;;13.18;nan